sensor_id;sensor_type;location;lat;lon;timestamp;P1;durP1;ratioP1;P2;durP2;ratioP2
5845;SDS011;2949;50.778;7.094;2023-06-14T00:01:35;7.47;;;4.30;;
5845;SDS011;2949;50.778;7.094;2023-06-14T00:04:01;5.60;;;4.40;;
5845;SDS011;2949;50.778;7.094;2023-06-14T00:06:26;4.67;;;3.87;;
5845;SDS011;2949;50.778;7.094;2023-06-14T00:08:53;7.37;;;4.50;;
5845;SDS011;2949;50.778;7.094;2023-06-14T00:11:19;5.77;;;3.90;;
5845;SDS011;2949;50.778;7.094;2023-06-14T00:13:45;8.33;;;4.73;;
5845;SDS011;2949;50.778;7.094;2023-06-14T00:16:11;6.10;;;4.47;;
5845;SDS011;2949;50.778;7.094;2023-06-14T00:18:37;8.00;;;4.13;;
5845;SDS011;2949;50.778;7.094;2023-06-14T00:21:03;7.20;;;4.90;;
5845;SDS011;2949;50.778;7.094;2023-06-14T00:23:29;8.10;;;4.30;;
5845;SDS011;2949;50.778;7.094;2023-06-14T00:25:55;5.23;;;4.50;;
5845;SDS011;2949;50.778;7.094;2023-06-14T00:28:20;4.33;;;3.80;;
5845;SDS011;2949;50.778;7.094;2023-06-14T00:30:46;4.40;;;4.00;;
5845;SDS011;2949;50.778;7.094;2023-06-14T00:33:12;6.90;;;4.60;;
5845;SDS011;2949;50.778;7.094;2023-06-14T00:35:38;9.03;;;4.70;;
5845;SDS011;2949;50.778;7.094;2023-06-14T00:38:03;6.67;;;4.57;;
5845;SDS011;2949;50.778;7.094;2023-06-14T00:40:29;4.93;;;3.80;;
5845;SDS011;2949;50.778;7.094;2023-06-14T00:42:55;7.37;;;5.10;;
5845;SDS011;2949;50.778;7.094;2023-06-14T00:45:20;12.10;;;5.03;;
5845;SDS011;2949;50.778;7.094;2023-06-14T00:47:46;6.60;;;4.40;;
5845;SDS011;2949;50.778;7.094;2023-06-14T00:50:15;15.37;;;5.07;;
5845;SDS011;2949;50.778;7.094;2023-06-14T00:52:41;15.60;;;4.70;;
5845;SDS011;2949;50.778;7.094;2023-06-14T00:55:07;8.40;;;4.90;;
5845;SDS011;2949;50.778;7.094;2023-06-14T00:57:33;6.97;;;4.37;;
5845;SDS011;2949;50.778;7.094;2023-06-14T01:00:02;5.00;;;4.50;;
5845;SDS011;2949;50.778;7.094;2023-06-14T01:02:33;4.57;;;4.17;;
5845;SDS011;2949;50.778;7.094;2023-06-14T01:04:59;16.20;;;4.93;;
5845;SDS011;2949;50.778;7.094;2023-06-14T01:10:12;7.40;;;4.33;;
5845;SDS011;2949;50.778;7.094;2023-06-14T01:15:45;7.83;;;4.90;;
5845;SDS011;2949;50.778;7.094;2023-06-14T01:18:12;5.67;;;4.80;;
5845;SDS011;2949;50.778;7.094;2023-06-14T01:20:44;5.43;;;4.93;;
5845;SDS011;2949;50.778;7.094;2023-06-14T01:23:14;6.00;;;4.47;;
5845;SDS011;2949;50.778;7.094;2023-06-14T01:25:46;5.70;;;4.67;;
5845;SDS011;2949;50.778;7.094;2023-06-14T01:28:15;7.00;;;4.60;;
5845;SDS011;2949;50.778;7.094;2023-06-14T01:30:42;10.00;;;5.50;;
5845;SDS011;2949;50.778;7.094;2023-06-14T01:33:13;6.33;;;4.67;;
5845;SDS011;2949;50.778;7.094;2023-06-14T01:35:44;8.07;;;4.47;;
5845;SDS011;2949;50.778;7.094;2023-06-14T01:38:12;5.30;;;4.40;;
5845;SDS011;2949;50.778;7.094;2023-06-14T01:40:39;5.10;;;4.50;;
5845;SDS011;2949;50.778;7.094;2023-06-14T01:43:07;6.07;;;4.37;;
5845;SDS011;2949;50.778;7.094;2023-06-14T01:45:34;15.70;;;5.47;;
5845;SDS011;2949;50.778;7.094;2023-06-14T01:48:01;6.20;;;5.03;;
5845;SDS011;2949;50.778;7.094;2023-06-14T01:50:30;8.00;;;5.53;;
5845;SDS011;2949;50.778;7.094;2023-06-14T01:52:56;8.10;;;5.20;;
5845;SDS011;2949;50.778;7.094;2023-06-14T01:55:21;11.80;;;5.20;;
5845;SDS011;2949;50.778;7.094;2023-06-14T01:57:47;4.70;;;4.20;;
5845;SDS011;2949;50.778;7.094;2023-06-14T02:00:13;6.07;;;4.90;;
5845;SDS011;2949;50.778;7.094;2023-06-14T02:02:40;6.00;;;4.40;;
5845;SDS011;2949;50.778;7.094;2023-06-14T02:05:05;6.50;;;4.97;;
5845;SDS011;2949;50.778;7.094;2023-06-14T02:07:31;6.77;;;5.50;;
5845;SDS011;2949;50.778;7.094;2023-06-14T02:09:57;7.17;;;4.73;;
5845;SDS011;2949;50.778;7.094;2023-06-14T02:12:22;12.50;;;4.77;;
5845;SDS011;2949;50.778;7.094;2023-06-14T02:14:48;6.23;;;4.90;;
5845;SDS011;2949;50.778;7.094;2023-06-14T02:17:14;9.57;;;5.37;;
5845;SDS011;2949;50.778;7.094;2023-06-14T02:19:39;11.90;;;5.47;;
5845;SDS011;2949;50.778;7.094;2023-06-14T02:22:05;6.10;;;5.00;;
5845;SDS011;2949;50.778;7.094;2023-06-14T02:24:31;5.27;;;4.43;;
5845;SDS011;2949;50.778;7.094;2023-06-14T02:26:57;6.53;;;5.10;;
5845;SDS011;2949;50.778;7.094;2023-06-14T02:29:22;9.20;;;5.10;;
5845;SDS011;2949;50.778;7.094;2023-06-14T02:31:48;6.47;;;4.93;;
5845;SDS011;2949;50.778;7.094;2023-06-14T02:34:14;7.30;;;5.83;;
5845;SDS011;2949;50.778;7.094;2023-06-14T02:36:41;5.13;;;4.63;;
5845;SDS011;2949;50.778;7.094;2023-06-14T02:39:10;8.40;;;4.93;;
5845;SDS011;2949;50.778;7.094;2023-06-14T02:41:36;5.63;;;5.07;;
5845;SDS011;2949;50.778;7.094;2023-06-14T02:44:02;11.20;;;5.93;;
5845;SDS011;2949;50.778;7.094;2023-06-14T02:46:28;10.10;;;5.20;;
5845;SDS011;2949;50.778;7.094;2023-06-14T02:48:53;6.00;;;4.60;;
5845;SDS011;2949;50.778;7.094;2023-06-14T02:51:19;6.60;;;5.17;;
5845;SDS011;2949;50.778;7.094;2023-06-14T02:53:44;7.13;;;5.53;;
5845;SDS011;2949;50.778;7.094;2023-06-14T02:56:10;6.50;;;5.30;;
5845;SDS011;2949;50.778;7.094;2023-06-14T02:58:36;16.53;;;5.70;;
5845;SDS011;2949;50.778;7.094;2023-06-14T03:01:04;8.23;;;5.57;;
5845;SDS011;2949;50.778;7.094;2023-06-14T03:03:30;7.47;;;5.40;;
5845;SDS011;2949;50.778;7.094;2023-06-14T03:05:56;5.80;;;5.30;;
5845;SDS011;2949;50.778;7.094;2023-06-14T03:08:22;6.07;;;5.47;;
5845;SDS011;2949;50.778;7.094;2023-06-14T03:10:52;11.80;;;5.70;;
5845;SDS011;2949;50.778;7.094;2023-06-14T03:13:18;7.60;;;5.60;;
5845;SDS011;2949;50.778;7.094;2023-06-14T03:15:47;7.77;;;6.37;;
5845;SDS011;2949;50.778;7.094;2023-06-14T03:18:15;7.87;;;5.20;;
5845;SDS011;2949;50.778;7.094;2023-06-14T03:20:41;7.20;;;5.07;;
5845;SDS011;2949;50.778;7.094;2023-06-14T03:23:10;8.40;;;5.50;;
5845;SDS011;2949;50.778;7.094;2023-06-14T03:25:36;6.07;;;5.13;;
5845;SDS011;2949;50.778;7.094;2023-06-14T03:28:04;7.80;;;5.50;;
5845;SDS011;2949;50.778;7.094;2023-06-14T03:30:30;5.70;;;5.20;;
5845;SDS011;2949;50.778;7.094;2023-06-14T03:32:56;6.63;;;5.10;;
5845;SDS011;2949;50.778;7.094;2023-06-14T03:35:22;5.87;;;5.27;;
5845;SDS011;2949;50.778;7.094;2023-06-14T03:37:48;7.57;;;5.10;;
5845;SDS011;2949;50.778;7.094;2023-06-14T03:40:15;5.30;;;4.43;;
5845;SDS011;2949;50.778;7.094;2023-06-14T03:42:43;8.40;;;5.40;;
5845;SDS011;2949;50.778;7.094;2023-06-14T03:45:09;10.23;;;5.13;;
5845;SDS011;2949;50.778;7.094;2023-06-14T03:47:35;6.33;;;5.20;;
5845;SDS011;2949;50.778;7.094;2023-06-14T03:50:03;5.70;;;5.10;;
5845;SDS011;2949;50.778;7.094;2023-06-14T03:52:30;12.43;;;6.00;;
5845;SDS011;2949;50.778;7.094;2023-06-14T03:54:58;6.97;;;6.00;;
5845;SDS011;2949;50.778;7.094;2023-06-14T03:57:25;6.80;;;5.87;;
5845;SDS011;2949;50.778;7.094;2023-06-14T03:59:51;10.90;;;5.63;;
5845;SDS011;2949;50.778;7.094;2023-06-14T04:02:16;6.93;;;4.80;;
5845;SDS011;2949;50.778;7.094;2023-06-14T04:04:43;6.50;;;5.10;;
5845;SDS011;2949;50.778;7.094;2023-06-14T04:07:13;7.13;;;5.53;;
5845;SDS011;2949;50.778;7.094;2023-06-14T04:09:40;6.07;;;5.20;;
5845;SDS011;2949;50.778;7.094;2023-06-14T04:12:06;12.73;;;6.27;;
5845;SDS011;2949;50.778;7.094;2023-06-14T04:14:33;9.60;;;6.03;;
5845;SDS011;2949;50.778;7.094;2023-06-14T04:16:59;9.37;;;5.37;;
5845;SDS011;2949;50.778;7.094;2023-06-14T04:19:25;7.47;;;5.63;;
5845;SDS011;2949;50.778;7.094;2023-06-14T04:21:51;9.20;;;6.00;;
5845;SDS011;2949;50.778;7.094;2023-06-14T04:24:16;6.30;;;5.17;;
5845;SDS011;2949;50.778;7.094;2023-06-14T04:26:43;8.70;;;5.37;;
5845;SDS011;2949;50.778;7.094;2023-06-14T04:29:16;9.50;;;5.50;;
5845;SDS011;2949;50.778;7.094;2023-06-14T04:31:45;9.77;;;5.27;;
5845;SDS011;2949;50.778;7.094;2023-06-14T04:34:11;7.63;;;4.87;;
5845;SDS011;2949;50.778;7.094;2023-06-14T04:36:46;5.00;;;4.50;;
5845;SDS011;2949;50.778;7.094;2023-06-14T04:39:18;9.20;;;5.37;;
5845;SDS011;2949;50.778;7.094;2023-06-14T04:41:44;7.40;;;5.43;;
5845;SDS011;2949;50.778;7.094;2023-06-14T04:44:10;8.80;;;4.40;;
5845;SDS011;2949;50.778;7.094;2023-06-14T04:46:36;7.73;;;5.03;;
5845;SDS011;2949;50.778;7.094;2023-06-14T04:49:11;5.93;;;4.40;;
5845;SDS011;2949;50.778;7.094;2023-06-14T04:51:39;11.63;;;5.20;;
5845;SDS011;2949;50.778;7.094;2023-06-14T04:54:05;6.37;;;4.77;;
5845;SDS011;2949;50.778;7.094;2023-06-14T04:56:35;8.30;;;5.90;;
5845;SDS011;2949;50.778;7.094;2023-06-14T04:59:03;7.90;;;5.60;;
5845;SDS011;2949;50.778;7.094;2023-06-14T05:01:31;12.80;;;4.73;;
5845;SDS011;2949;50.778;7.094;2023-06-14T05:03:58;5.57;;;4.10;;
5845;SDS011;2949;50.778;7.094;2023-06-14T05:06:24;7.87;;;5.47;;
5845;SDS011;2949;50.778;7.094;2023-06-14T05:08:51;5.47;;;4.87;;
5845;SDS011;2949;50.778;7.094;2023-06-14T05:11:16;11.33;;;4.70;;
5845;SDS011;2949;50.778;7.094;2023-06-14T05:13:42;5.83;;;4.73;;
5845;SDS011;2949;50.778;7.094;2023-06-14T05:16:09;6.70;;;4.63;;
5845;SDS011;2949;50.778;7.094;2023-06-14T05:18:36;23.20;;;4.33;;
5845;SDS011;2949;50.778;7.094;2023-06-14T05:21:02;5.77;;;4.17;;
5845;SDS011;2949;50.778;7.094;2023-06-14T05:23:29;8.80;;;4.93;;
5845;SDS011;2949;50.778;7.094;2023-06-14T05:25:55;8.40;;;4.83;;
5845;SDS011;2949;50.778;7.094;2023-06-14T05:28:21;9.97;;;3.97;;
5845;SDS011;2949;50.778;7.094;2023-06-14T05:30:47;8.63;;;4.50;;
5845;SDS011;2949;50.778;7.094;2023-06-14T05:33:13;6.00;;;4.60;;
5845;SDS011;2949;50.778;7.094;2023-06-14T05:35:38;9.60;;;4.50;;
5845;SDS011;2949;50.778;7.094;2023-06-14T05:38:03;11.97;;;4.03;;
5845;SDS011;2949;50.778;7.094;2023-06-14T05:40:29;12.67;;;4.27;;
5845;SDS011;2949;50.778;7.094;2023-06-14T05:42:54;8.57;;;4.27;;
5845;SDS011;2949;50.778;7.094;2023-06-14T05:45:20;7.57;;;3.50;;
5845;SDS011;2949;50.778;7.094;2023-06-14T05:47:46;9.73;;;3.53;;
5845;SDS011;2949;50.778;7.094;2023-06-14T05:50:11;3.80;;;3.47;;
5845;SDS011;2949;50.778;7.094;2023-06-14T05:52:36;10.53;;;4.10;;
5845;SDS011;2949;50.778;7.094;2023-06-14T05:55:02;11.40;;;3.67;;
5845;SDS011;2949;50.778;7.094;2023-06-14T05:57:29;8.30;;;3.50;;
5845;SDS011;2949;50.778;7.094;2023-06-14T05:59:54;8.90;;;3.50;;
5845;SDS011;2949;50.778;7.094;2023-06-14T06:02:20;13.63;;;3.20;;
5845;SDS011;2949;50.778;7.094;2023-06-14T06:04:46;5.10;;;3.90;;
5845;SDS011;2949;50.778;7.094;2023-06-14T06:07:12;5.97;;;3.43;;
5845;SDS011;2949;50.778;7.094;2023-06-14T06:09:37;9.23;;;3.03;;
5845;SDS011;2949;50.778;7.094;2023-06-14T06:12:04;9.33;;;3.10;;
5845;SDS011;2949;50.778;7.094;2023-06-14T06:14:31;7.07;;;3.17;;
5845;SDS011;2949;50.778;7.094;2023-06-14T06:16:57;3.20;;;2.77;;
5845;SDS011;2949;50.778;7.094;2023-06-14T06:19:23;2.43;;;2.23;;
5845;SDS011;2949;50.778;7.094;2023-06-14T06:21:48;5.70;;;2.90;;
5845;SDS011;2949;50.778;7.094;2023-06-14T06:24:14;3.33;;;2.20;;
5845;SDS011;2949;50.778;7.094;2023-06-14T06:26:40;7.67;;;2.90;;
5845;SDS011;2949;50.778;7.094;2023-06-14T06:29:05;5.93;;;3.20;;
5845;SDS011;2949;50.778;7.094;2023-06-14T06:31:31;3.03;;;2.80;;
5845;SDS011;2949;50.778;7.094;2023-06-14T06:33:56;3.97;;;2.77;;
5845;SDS011;2949;50.778;7.094;2023-06-14T06:36:22;7.33;;;2.90;;
5845;SDS011;2949;50.778;7.094;2023-06-14T06:38:48;4.40;;;2.60;;
5845;SDS011;2949;50.778;7.094;2023-06-14T06:41:13;3.80;;;2.60;;
5845;SDS011;2949;50.778;7.094;2023-06-14T06:43:39;6.00;;;2.30;;
5845;SDS011;2949;50.778;7.094;2023-06-14T06:46:05;3.13;;;2.50;;
5845;SDS011;2949;50.778;7.094;2023-06-14T06:48:30;7.67;;;3.33;;
5845;SDS011;2949;50.778;7.094;2023-06-14T06:50:56;2.93;;;2.10;;
5845;SDS011;2949;50.778;7.094;2023-06-14T06:53:21;2.60;;;2.27;;
5845;SDS011;2949;50.778;7.094;2023-06-14T06:55:48;7.30;;;2.50;;
5845;SDS011;2949;50.778;7.094;2023-06-14T06:58:13;2.93;;;1.93;;
5845;SDS011;2949;50.778;7.094;2023-06-14T07:00:39;4.47;;;2.00;;
5845;SDS011;2949;50.778;7.094;2023-06-14T07:03:05;2.47;;;2.17;;
5845;SDS011;2949;50.778;7.094;2023-06-14T07:05:30;6.23;;;2.40;;
5845;SDS011;2949;50.778;7.094;2023-06-14T07:07:57;3.70;;;2.70;;
5845;SDS011;2949;50.778;7.094;2023-06-14T07:10:22;2.10;;;1.83;;
5845;SDS011;2949;50.778;7.094;2023-06-14T07:12:49;2.80;;;2.17;;
5845;SDS011;2949;50.778;7.094;2023-06-14T07:15:15;1.93;;;1.83;;
5845;SDS011;2949;50.778;7.094;2023-06-14T07:17:41;2.07;;;1.97;;
5845;SDS011;2949;50.778;7.094;2023-06-14T07:20:07;3.00;;;2.10;;
5845;SDS011;2949;50.778;7.094;2023-06-14T07:22:36;3.20;;;2.07;;
5845;SDS011;2949;50.778;7.094;2023-06-14T07:25:12;5.20;;;2.20;;
5845;SDS011;2949;50.778;7.094;2023-06-14T07:27:41;4.90;;;2.30;;
5845;SDS011;2949;50.778;7.094;2023-06-14T07:30:07;3.70;;;1.53;;
5845;SDS011;2949;50.778;7.094;2023-06-14T07:32:34;2.47;;;2.13;;
5845;SDS011;2949;50.778;7.094;2023-06-14T07:34:59;3.20;;;2.30;;
5845;SDS011;2949;50.778;7.094;2023-06-14T07:37:25;5.77;;;2.60;;
5845;SDS011;2949;50.778;7.094;2023-06-14T07:39:50;3.53;;;2.20;;
5845;SDS011;2949;50.778;7.094;2023-06-14T07:42:16;2.30;;;2.20;;
5845;SDS011;2949;50.778;7.094;2023-06-14T07:44:41;3.50;;;2.00;;
5845;SDS011;2949;50.778;7.094;2023-06-14T07:47:07;3.03;;;2.43;;
5845;SDS011;2949;50.778;7.094;2023-06-14T07:49:32;2.50;;;1.97;;
5845;SDS011;2949;50.778;7.094;2023-06-14T07:51:58;3.67;;;2.17;;
5845;SDS011;2949;50.778;7.094;2023-06-14T07:54:23;2.60;;;2.40;;
5845;SDS011;2949;50.778;7.094;2023-06-14T07:56:51;6.33;;;2.17;;
5845;SDS011;2949;50.778;7.094;2023-06-14T07:59:17;2.03;;;1.83;;
5845;SDS011;2949;50.778;7.094;2023-06-14T08:01:42;3.13;;;1.70;;
5845;SDS011;2949;50.778;7.094;2023-06-14T08:04:12;1.87;;;1.73;;
5845;SDS011;2949;50.778;7.094;2023-06-14T08:06:38;3.03;;;2.10;;
5845;SDS011;2949;50.778;7.094;2023-06-14T08:09:04;11.23;;;2.40;;
5845;SDS011;2949;50.778;7.094;2023-06-14T08:11:30;3.80;;;2.00;;
5845;SDS011;2949;50.778;7.094;2023-06-14T08:13:56;3.00;;;1.90;;
5845;SDS011;2949;50.778;7.094;2023-06-14T08:16:21;1.93;;;1.70;;
5845;SDS011;2949;50.778;7.094;2023-06-14T08:18:47;3.10;;;1.80;;
5845;SDS011;2949;50.778;7.094;2023-06-14T08:21:13;2.93;;;1.90;;
5845;SDS011;2949;50.778;7.094;2023-06-14T08:23:39;3.00;;;1.93;;
5845;SDS011;2949;50.778;7.094;2023-06-14T08:26:07;2.30;;;1.60;;
5845;SDS011;2949;50.778;7.094;2023-06-14T08:28:33;3.80;;;1.70;;
5845;SDS011;2949;50.778;7.094;2023-06-14T08:30:59;1.00;;;1.00;;
5845;SDS011;2949;50.778;7.094;2023-06-14T08:33:25;1.50;;;1.40;;
5845;SDS011;2949;50.778;7.094;2023-06-14T08:35:51;2.03;;;1.57;;
5845;SDS011;2949;50.778;7.094;2023-06-14T08:38:17;1.10;;;1.10;;
5845;SDS011;2949;50.778;7.094;2023-06-14T08:40:42;1.80;;;1.37;;
5845;SDS011;2949;50.778;7.094;2023-06-14T08:43:10;1.00;;;1.00;;
5845;SDS011;2949;50.778;7.094;2023-06-14T08:45:35;1.60;;;1.50;;
5845;SDS011;2949;50.778;7.094;2023-06-14T08:48:01;1.90;;;1.80;;
5845;SDS011;2949;50.778;7.094;2023-06-14T08:50:27;1.80;;;1.30;;
5845;SDS011;2949;50.778;7.094;2023-06-14T08:52:56;4.87;;;1.20;;
5845;SDS011;2949;50.778;7.094;2023-06-14T08:55:28;1.67;;;1.57;;
5845;SDS011;2949;50.778;7.094;2023-06-14T08:57:55;1.57;;;1.47;;
5845;SDS011;2949;50.778;7.094;2023-06-14T09:00:27;1.70;;;1.27;;
5845;SDS011;2949;50.778;7.094;2023-06-14T09:02:53;5.13;;;1.20;;
5845;SDS011;2949;50.778;7.094;2023-06-14T09:05:22;1.20;;;1.07;;
5845;SDS011;2949;50.778;7.094;2023-06-14T09:07:48;3.13;;;1.40;;
5845;SDS011;2949;50.778;7.094;2023-06-14T09:10:15;1.00;;;1.00;;
5845;SDS011;2949;50.778;7.094;2023-06-14T09:12:42;1.10;;;1.10;;
5845;SDS011;2949;50.778;7.094;2023-06-14T09:15:08;2.70;;;1.57;;
5845;SDS011;2949;50.778;7.094;2023-06-14T09:17:35;1.27;;;1.17;;
5845;SDS011;2949;50.778;7.094;2023-06-14T09:20:05;1.10;;;1.10;;
5845;SDS011;2949;50.778;7.094;2023-06-14T09:22:34;2.37;;;1.70;;
5845;SDS011;2949;50.778;7.094;2023-06-14T09:25:00;1.40;;;1.30;;
5845;SDS011;2949;50.778;7.094;2023-06-14T09:27:26;1.40;;;1.40;;
5845;SDS011;2949;50.778;7.094;2023-06-14T09:29:52;2.33;;;2.15;;
5845;SDS011;2949;50.778;7.094;2023-06-14T09:32:18;1.20;;;1.20;;
5845;SDS011;2949;50.778;7.094;2023-06-14T09:34:45;1.90;;;1.60;;
5845;SDS011;2949;50.778;7.094;2023-06-14T09:37:11;1.80;;;1.53;;
5845;SDS011;2949;50.778;7.094;2023-06-14T09:39:49;5.03;;;1.90;;
5845;SDS011;2949;50.778;7.094;2023-06-14T09:42:16;2.30;;;1.60;;
5845;SDS011;2949;50.778;7.094;2023-06-14T09:44:48;4.95;;;1.48;;
5845;SDS011;2949;50.778;7.094;2023-06-14T09:47:15;1.67;;;1.40;;
5845;SDS011;2949;50.778;7.094;2023-06-14T09:49:41;1.85;;;1.75;;
5845;SDS011;2949;50.778;7.094;2023-06-14T09:52:09;1.60;;;1.42;;
5845;SDS011;2949;50.778;7.094;2023-06-14T09:54:37;11.43;;;2.08;;
5845;SDS011;2949;50.778;7.094;2023-06-14T09:57:11;2.42;;;1.70;;
5845;SDS011;2949;50.778;7.094;2023-06-14T09:59:41;1.92;;;1.80;;
5845;SDS011;2949;50.778;7.094;2023-06-14T10:02:12;1.70;;;1.60;;
5845;SDS011;2949;50.778;7.094;2023-06-14T10:04:57;1.63;;;1.35;;
5845;SDS011;2949;50.778;7.094;2023-06-14T10:07:30;1.98;;;1.63;;
5845;SDS011;2949;50.778;7.094;2023-06-14T10:10:15;4.47;;;1.58;;
5845;SDS011;2949;50.778;7.094;2023-06-14T10:12:40;3.85;;;1.55;;
5845;SDS011;2949;50.778;7.094;2023-06-14T10:15:07;1.58;;;1.48;;
5845;SDS011;2949;50.778;7.094;2023-06-14T10:20:16;6.85;;;1.80;;
5845;SDS011;2949;50.778;7.094;2023-06-14T10:22:49;4.95;;;1.70;;
5845;SDS011;2949;50.778;7.094;2023-06-14T10:25:30;2.25;;;1.50;;
5845;SDS011;2949;50.778;7.094;2023-06-14T10:28:03;2.05;;;1.10;;
5845;SDS011;2949;50.778;7.094;2023-06-14T10:33:39;3.47;;;1.03;;
5845;SDS011;2949;50.778;7.094;2023-06-14T10:41:29;2.23;;;1.80;;
5845;SDS011;2949;50.778;7.094;2023-06-14T10:46:39;3.10;;;1.63;;
5845;SDS011;2949;50.778;7.094;2023-06-14T10:49:05;5.80;;;1.77;;
5845;SDS011;2949;50.778;7.094;2023-06-14T10:51:41;3.80;;;1.63;;
5845;SDS011;2949;50.778;7.094;2023-06-14T10:54:13;1.10;;;1.00;;
5845;SDS011;2949;50.778;7.094;2023-06-14T10:57:00;5.37;;;1.30;;
5845;SDS011;2949;50.778;7.094;2023-06-14T10:59:25;1.50;;;1.40;;
5845;SDS011;2949;50.778;7.094;2023-06-14T11:01:57;1.33;;;1.23;;
5845;SDS011;2949;50.778;7.094;2023-06-14T11:07:30;1.70;;;1.60;;
5845;SDS011;2949;50.778;7.094;2023-06-14T11:10:25;1.90;;;1.43;;
5845;SDS011;2949;50.778;7.094;2023-06-14T11:12:59;1.77;;;1.60;;
5845;SDS011;2949;50.778;7.094;2023-06-14T11:15:28;2.53;;;1.20;;
5845;SDS011;2949;50.778;7.094;2023-06-14T11:18:00;2.73;;;1.20;;
5845;SDS011;2949;50.778;7.094;2023-06-14T11:20:29;3.53;;;1.50;;
5845;SDS011;2949;50.778;7.094;2023-06-14T11:22:56;3.67;;;1.47;;
5845;SDS011;2949;50.778;7.094;2023-06-14T11:25:21;3.17;;;1.80;;
5845;SDS011;2949;50.778;7.094;2023-06-14T11:27:49;2.40;;;1.37;;
5845;SDS011;2949;50.778;7.094;2023-06-14T11:30:15;5.23;;;2.80;;
5845;SDS011;2949;50.778;7.094;2023-06-14T11:32:41;3.23;;;1.50;;
5845;SDS011;2949;50.778;7.094;2023-06-14T11:35:07;1.37;;;1.27;;
5845;SDS011;2949;50.778;7.094;2023-06-14T11:37:35;1.50;;;1.40;;
5845;SDS011;2949;50.778;7.094;2023-06-14T11:40:02;3.03;;;1.50;;
5845;SDS011;2949;50.778;7.094;2023-06-14T11:42:30;1.33;;;1.30;;
5845;SDS011;2949;50.778;7.094;2023-06-14T11:44:55;3.77;;;1.40;;
5845;SDS011;2949;50.778;7.094;2023-06-14T11:47:21;1.50;;;1.33;;
5845;SDS011;2949;50.778;7.094;2023-06-14T11:49:47;1.50;;;1.40;;
5845;SDS011;2949;50.778;7.094;2023-06-14T11:52:13;1.57;;;1.47;;
5845;SDS011;2949;50.778;7.094;2023-06-14T11:54:39;2.10;;;1.40;;
5845;SDS011;2949;50.778;7.094;2023-06-14T11:57:06;0.93;;;0.93;;
5845;SDS011;2949;50.778;7.094;2023-06-14T11:59:36;1.33;;;1.23;;
5845;SDS011;2949;50.778;7.094;2023-06-14T12:02:03;2.60;;;1.57;;
5845;SDS011;2949;50.778;7.094;2023-06-14T12:04:29;0.90;;;0.90;;
5845;SDS011;2949;50.778;7.094;2023-06-14T12:06:55;0.80;;;0.77;;
5845;SDS011;2949;50.778;7.094;2023-06-14T12:09:22;1.00;;;1.00;;
5845;SDS011;2949;50.778;7.094;2023-06-14T12:11:50;1.70;;;1.00;;
5845;SDS011;2949;50.778;7.094;2023-06-14T12:14:28;1.10;;;0.80;;
5845;SDS011;2949;50.778;7.094;2023-06-14T12:17:03;1.80;;;0.80;;
5845;SDS011;2949;50.778;7.094;2023-06-14T12:19:33;3.17;;;0.90;;
5845;SDS011;2949;50.778;7.094;2023-06-14T12:22:06;4.70;;;0.97;;
5845;SDS011;2949;50.778;7.094;2023-06-14T12:24:34;1.10;;;0.80;;
5845;SDS011;2949;50.778;7.094;2023-06-14T12:27:00;5.30;;;1.00;;
5845;SDS011;2949;50.778;7.094;2023-06-14T12:29:28;1.73;;;0.90;;
5845;SDS011;2949;50.778;7.094;2023-06-14T12:31:54;1.50;;;1.20;;
5845;SDS011;2949;50.778;7.094;2023-06-14T12:34:22;1.03;;;1.03;;
5845;SDS011;2949;50.778;7.094;2023-06-14T12:36:48;1.10;;;1.00;;
5845;SDS011;2949;50.778;7.094;2023-06-14T12:39:14;0.97;;;0.93;;
5845;SDS011;2949;50.778;7.094;2023-06-14T12:41:40;1.10;;;1.10;;
5845;SDS011;2949;50.778;7.094;2023-06-14T12:44:09;1.27;;;1.10;;
5845;SDS011;2949;50.778;7.094;2023-06-14T12:46:36;0.87;;;0.87;;
5845;SDS011;2949;50.778;7.094;2023-06-14T12:49:02;1.30;;;1.03;;
5845;SDS011;2949;50.778;7.094;2023-06-14T12:51:27;1.70;;;1.37;;
5845;SDS011;2949;50.778;7.094;2023-06-14T12:53:53;1.13;;;1.00;;
5845;SDS011;2949;50.778;7.094;2023-06-14T12:56:19;1.03;;;0.70;;
5845;SDS011;2949;50.778;7.094;2023-06-14T12:58:44;0.90;;;0.80;;
5845;SDS011;2949;50.778;7.094;2023-06-14T13:01:10;2.70;;;1.20;;
5845;SDS011;2949;50.778;7.094;2023-06-14T13:03:35;1.67;;;0.90;;
5845;SDS011;2949;50.778;7.094;2023-06-14T13:06:01;2.60;;;1.17;;
5845;SDS011;2949;50.778;7.094;2023-06-14T13:08:28;6.10;;;1.00;;
5845;SDS011;2949;50.778;7.094;2023-06-14T13:10:54;4.67;;;1.23;;
5845;SDS011;2949;50.778;7.094;2023-06-14T13:13:20;2.43;;;1.00;;
5845;SDS011;2949;50.778;7.094;2023-06-14T13:15:46;1.43;;;1.03;;
5845;SDS011;2949;50.778;7.094;2023-06-14T13:18:13;2.33;;;1.30;;
5845;SDS011;2949;50.778;7.094;2023-06-14T13:20:39;2.10;;;1.50;;
5845;SDS011;2949;50.778;7.094;2023-06-14T13:23:05;1.53;;;1.43;;
5845;SDS011;2949;50.778;7.094;2023-06-14T13:25:32;2.43;;;1.33;;
5845;SDS011;2949;50.778;7.094;2023-06-14T13:28:02;1.43;;;1.27;;
5845;SDS011;2949;50.778;7.094;2023-06-14T13:30:28;6.57;;;1.30;;
5845;SDS011;2949;50.778;7.094;2023-06-14T13:32:54;1.50;;;1.40;;
5845;SDS011;2949;50.778;7.094;2023-06-14T13:35:21;2.00;;;1.37;;
5845;SDS011;2949;50.778;7.094;2023-06-14T13:37:47;8.17;;;1.23;;
5845;SDS011;2949;50.778;7.094;2023-06-14T13:40:13;4.90;;;1.80;;
5845;SDS011;2949;50.778;7.094;2023-06-14T13:42:38;4.10;;;1.53;;
5845;SDS011;2949;50.778;7.094;2023-06-14T13:45:05;3.40;;;1.10;;
5845;SDS011;2949;50.778;7.094;2023-06-14T13:47:31;1.40;;;1.30;;
5845;SDS011;2949;50.778;7.094;2023-06-14T13:49:57;1.63;;;1.20;;
5845;SDS011;2949;50.778;7.094;2023-06-14T13:52:23;1.10;;;1.10;;
5845;SDS011;2949;50.778;7.094;2023-06-14T13:54:49;8.57;;;1.33;;
5845;SDS011;2949;50.778;7.094;2023-06-14T13:57:14;2.50;;;1.20;;
5845;SDS011;2949;50.778;7.094;2023-06-14T13:59:41;1.57;;;1.37;;
5845;SDS011;2949;50.778;7.094;2023-06-14T14:02:08;2.20;;;1.20;;
5845;SDS011;2949;50.778;7.094;2023-06-14T14:04:34;1.70;;;1.60;;
5845;SDS011;2949;50.778;7.094;2023-06-14T14:07:00;1.33;;;1.23;;
5845;SDS011;2949;50.778;7.094;2023-06-14T14:09:27;2.20;;;1.53;;
5845;SDS011;2949;50.778;7.094;2023-06-14T14:11:52;1.13;;;1.13;;
5845;SDS011;2949;50.778;7.094;2023-06-14T14:14:18;1.37;;;1.27;;
5845;SDS011;2949;50.778;7.094;2023-06-14T14:16:43;2.80;;;1.60;;
5845;SDS011;2949;50.778;7.094;2023-06-14T14:19:09;1.50;;;1.40;;
5845;SDS011;2949;50.778;7.094;2023-06-14T14:21:34;1.20;;;1.10;;
5845;SDS011;2949;50.778;7.094;2023-06-14T14:24:00;1.37;;;1.13;;
5845;SDS011;2949;50.778;7.094;2023-06-14T14:26:26;3.90;;;1.40;;
5845;SDS011;2949;50.778;7.094;2023-06-14T14:28:51;1.40;;;1.30;;
5845;SDS011;2949;50.778;7.094;2023-06-14T14:31:17;1.40;;;1.30;;
5845;SDS011;2949;50.778;7.094;2023-06-14T14:33:43;1.03;;;0.93;;
5845;SDS011;2949;50.778;7.094;2023-06-14T14:36:08;1.23;;;1.13;;
5845;SDS011;2949;50.778;7.094;2023-06-14T14:38:34;1.53;;;1.33;;
5845;SDS011;2949;50.778;7.094;2023-06-14T14:41:00;1.67;;;1.30;;
5845;SDS011;2949;50.778;7.094;2023-06-14T14:43:25;1.30;;;1.20;;
5845;SDS011;2949;50.778;7.094;2023-06-14T14:45:51;1.20;;;1.10;;
5845;SDS011;2949;50.778;7.094;2023-06-14T14:48:17;3.03;;;1.57;;
5845;SDS011;2949;50.778;7.094;2023-06-14T14:50:43;1.33;;;1.33;;
5845;SDS011;2949;50.778;7.094;2023-06-14T14:53:08;2.77;;;1.50;;
5845;SDS011;2949;50.778;7.094;2023-06-14T14:55:34;2.17;;;1.60;;
5845;SDS011;2949;50.778;7.094;2023-06-14T14:58:02;1.33;;;1.10;;
5845;SDS011;2949;50.778;7.094;2023-06-14T15:00:28;6.17;;;1.83;;
5845;SDS011;2949;50.778;7.094;2023-06-14T15:02:53;1.80;;;1.30;;
5845;SDS011;2949;50.778;7.094;2023-06-14T15:05:19;1.70;;;1.60;;
5845;SDS011;2949;50.778;7.094;2023-06-14T15:07:44;5.93;;;1.63;;
5845;SDS011;2949;50.778;7.094;2023-06-14T15:10:10;4.80;;;1.90;;
5845;SDS011;2949;50.778;7.094;2023-06-14T15:12:36;1.83;;;1.30;;
5845;SDS011;2949;50.778;7.094;2023-06-14T15:15:02;1.40;;;1.30;;
5845;SDS011;2949;50.778;7.094;2023-06-14T15:17:28;1.63;;;1.07;;
5845;SDS011;2949;50.778;7.094;2023-06-14T15:19:54;3.80;;;1.30;;
5845;SDS011;2949;50.778;7.094;2023-06-14T15:22:20;2.00;;;1.80;;
5845;SDS011;2949;50.778;7.094;2023-06-14T15:24:45;2.50;;;1.50;;
5845;SDS011;2949;50.778;7.094;2023-06-14T15:27:11;3.63;;;1.60;;
5845;SDS011;2949;50.778;7.094;2023-06-14T15:29:37;2.37;;;1.20;;
5845;SDS011;2949;50.778;7.094;2023-06-14T15:32:05;3.93;;;1.50;;
5845;SDS011;2949;50.778;7.094;2023-06-14T15:34:31;4.43;;;2.70;;
5845;SDS011;2949;50.778;7.094;2023-06-14T15:36:57;5.27;;;1.87;;